Dayton, New York
Current Conditions -  °F | °C
As of 7:53 AM on Monday 22 Dec 2014 (Local Time) from KDKK Reporting Station
Clear Clear  
Wind Chill: 23°   Ceiling: Unl
Heat Index: 23°   Visibility: 10mi
Dew Point: 20°   Wind: 3mph
Humidity: 88%   Direction: NA
Pressure: 30.18"   Gusts: NA
Location:  42.42°N, 78.98°W
Report Text: KDKK 221253Z AUTO VRB03KT 10SM CLR M05/M07 A3018 RMK AO2 SLP229 T10501067
Loading
Personal Weather Stations






























Interactive Weather Map New forecast layout! Learn more

10-Day Weather Forecast

Advertisements
Track Severe Weather on mobile